sensor_id;sensor_type;location;lat;lon;timestamp;pressure;altitude;pressure_sealevel;temperature;humidity
68525;BME280;55524;51.380;13.372;2022-10-17T00:01:50;101271.25;;;12.56;100.00
68525;BME280;55524;51.380;13.372;2022-10-17T00:05:07;101270.41;;;12.54;100.00
68525;BME280;55524;51.380;13.372;2022-10-17T00:08:14;101264.94;;;12.59;100.00
68525;BME280;55524;51.380;13.372;2022-10-17T00:11:36;101260.47;;;12.61;100.00
68525;BME280;55524;51.380;13.372;2022-10-17T02:23:12;101256.28;;;11.66;100.00
68525;BME280;55524;51.380;13.372;2022-10-17T02:25:53;101248.41;;;11.63;100.00
68525;BME280;55524;51.380;13.372;2022-10-17T02:32:09;101238.81;;;11.59;100.00
68525;BME280;55524;51.380;13.372;2022-10-17T02:35:24;101238.78;;;11.61;100.00
68525;BME280;55524;51.380;13.372;2022-10-17T02:38:43;101243.22;;;11.60;100.00
68525;BME280;55524;51.380;13.372;2022-10-17T02:41:39;101232.72;;;11.57;100.00
68525;BME280;55524;51.380;13.372;2022-10-17T02:44:40;101232.75;;;11.55;100.00
68525;BME280;55524;51.380;13.372;2022-10-17T03:00:55;101241.59;;;11.54;100.00
68525;BME280;55524;51.380;13.372;2022-10-17T03:04:12;101247.75;;;11.56;100.00
68525;BME280;55524;51.380;13.372;2022-10-17T03:07:19;101258.13;;;11.63;100.00
68525;BME280;55524;51.380;13.372;2022-10-17T03:13:46;101253.03;;;11.56;100.00
68525;BME280;55524;51.380;13.372;2022-10-17T03:16:56;101256.69;;;11.51;100.00
68525;BME280;55524;51.380;13.372;2022-10-17T03:23:26;101265.69;;;11.45;100.00
68525;BME280;55524;51.380;13.372;2022-10-17T03:26:45;101266.63;;;11.43;100.00
68525;BME280;55524;51.380;13.372;2022-10-17T03:29:57;101257.84;;;11.42;100.00
68525;BME280;55524;51.380;13.372;2022-10-17T03:33:02;101260.56;;;11.39;100.00
68525;BME280;55524;51.380;13.372;2022-10-17T03:35:57;101259.63;;;11.40;100.00
68525;BME280;55524;51.380;13.372;2022-10-17T03:39:03;101267.44;;;11.46;100.00
68525;BME280;55524;51.380;13.372;2022-10-17T03:42:07;101262.28;;;11.40;100.00
68525;BME280;55524;51.380;13.372;2022-10-17T03:45:15;101260.53;;;11.41;100.00
68525;BME280;55524;51.380;13.372;2022-10-17T03:48:20;101255.19;;;11.42;100.00
68525;BME280;55524;51.380;13.372;2022-10-17T03:51:20;101255.25;;;11.41;100.00
68525;BME280;55524;51.380;13.372;2022-10-17T03:54:32;101256.69;;;11.51;100.00
68525;BME280;55524;51.380;13.372;2022-10-17T03:57:34;101254.47;;;11.68;100.00
68525;BME280;55524;51.380;13.372;2022-10-17T04:04:18;101258.38;;;11.86;100.00
68525;BME280;55524;51.380;13.372;2022-10-17T04:07:50;101254.66;;;11.92;100.00
68525;BME280;55524;51.380;13.372;2022-10-17T04:14:32;101265.25;;;11.92;100.00
68525;BME280;55524;51.380;13.372;2022-10-17T04:17:47;101262.81;;;11.86;100.00
68525;BME280;55524;51.380;13.372;2022-10-17T04:20:46;101257.56;;;11.84;100.00
68525;BME280;55524;51.380;13.372;2022-10-17T04:27:31;101259.16;;;11.90;100.00
68525;BME280;55524;51.380;13.372;2022-10-17T04:30:27;101257.28;;;11.93;100.00
68525;BME280;55524;51.380;13.372;2022-10-17T04:36:49;101259.97;;;11.92;100.00
68525;BME280;55524;51.380;13.372;2022-10-17T04:39:58;101262.44;;;11.98;100.00
68525;BME280;55524;51.380;13.372;2022-10-17T04:42:53;101262.59;;;11.93;100.00
68525;BME280;55524;51.380;13.372;2022-10-17T04:45:48;101266.97;;;11.94;100.00
68525;BME280;55524;51.380;13.372;2022-10-17T04:48:43;101270.56;;;11.92;100.00
68525;BME280;55524;51.380;13.372;2022-10-17T04:52:05;101274.09;;;11.92;100.00
68525;BME280;55524;51.380;13.372;2022-10-17T05:02:04;101279.13;;;12.01;100.00
68525;BME280;55524;51.380;13.372;2022-10-17T05:04:59;101272.91;;;12.02;100.00
68525;BME280;55524;51.380;13.372;2022-10-17T05:08:01;101273.97;;;11.97;100.00
68525;BME280;55524;51.380;13.372;2022-10-17T05:10:56;101281.06;;;11.95;100.00
68525;BME280;55524;51.380;13.372;2022-10-17T05:14:09;101278.50;;;11.92;100.00
68525;BME280;55524;51.380;13.372;2022-10-17T05:20:40;101282.47;;;11.75;100.00
68525;BME280;55524;51.380;13.372;2022-10-17T05:23:38;101289.78;;;11.67;100.00
68525;BME280;55524;51.380;13.372;2022-10-17T05:27:11;101288.25;;;11.58;100.00
68525;BME280;55524;51.380;13.372;2022-10-17T05:40:33;101301.03;;;11.44;100.00
68525;BME280;55524;51.380;13.372;2022-10-17T05:47:08;101307.50;;;11.65;100.00
68525;BME280;55524;51.380;13.372;2022-10-17T05:50:04;101307.69;;;11.90;100.00
68525;BME280;55524;51.380;13.372;2022-10-17T05:53:24;101316.72;;;12.14;100.00
68525;BME280;55524;51.380;13.372;2022-10-17T05:56:40;101319.91;;;12.25;100.00
68525;BME280;55524;51.380;13.372;2022-10-17T06:03:17;101330.94;;;12.12;100.00
68525;BME280;55524;51.380;13.372;2022-10-17T06:06:13;101337.53;;;12.26;100.00
68525;BME280;55524;51.380;13.372;2022-10-17T06:48:56;101354.75;;;14.47;100.00
68525;BME280;55524;51.380;13.372;2022-10-17T07:03:21;101347.34;;;18.66;87.60
68525;BME280;55524;51.380;13.372;2022-10-17T07:06:25;101328.13;;;20.23;77.58
68525;BME280;55524;51.380;13.372;2022-10-17T07:09:14;101303.53;;;21.39;70.94
68525;BME280;55524;51.380;13.372;2022-10-17T07:11:56;101293.28;;;21.95;67.96
68525;BME280;55524;51.380;13.372;2022-10-17T07:14:29;101294.53;;;22.28;66.56
68525;BME280;55524;51.380;13.372;2022-10-17T07:17:38;101289.22;;;23.00;63.61
68525;BME280;55524;51.380;13.372;2022-10-17T07:26:16;101321.44;;;22.41;64.72
68525;BME280;55524;51.380;13.372;2022-10-17T07:29:03;101318.28;;;22.59;64.50
68525;BME280;55524;51.380;13.372;2022-10-17T07:32:17;101326.78;;;22.29;65.19
68525;BME280;55524;51.380;13.372;2022-10-17T07:38:36;101348.88;;;21.31;68.80
68525;BME280;55524;51.380;13.372;2022-10-17T07:45:31;101310.09;;;22.61;64.21
68525;BME280;55524;51.380;13.372;2022-10-17T07:48:55;101312.47;;;22.53;63.97
68525;BME280;55524;51.380;13.372;2022-10-17T07:51:56;101326.00;;;22.64;64.17
68525;BME280;55524;51.380;13.372;2022-10-17T08:01:25;101360.47;;;21.58;68.31
68525;BME280;55524;51.380;13.372;2022-10-17T08:04:11;101351.44;;;21.72;68.21
68525;BME280;55524;51.380;13.372;2022-10-17T08:07:00;101353.91;;;21.75;68.23
68525;BME280;55524;51.380;13.372;2022-10-17T08:09:30;101369.91;;;21.39;69.33
68525;BME280;55524;51.380;13.372;2022-10-17T08:12:16;101381.66;;;20.96;71.52
68525;BME280;55524;51.380;13.372;2022-10-17T08:18:58;101389.56;;;19.40;78.17
68525;BME280;55524;51.380;13.372;2022-10-17T08:21:58;101389.72;;;19.37;79.58
68525;BME280;55524;51.380;13.372;2022-10-17T08:25:09;101392.81;;;19.46;79.29
68525;BME280;55524;51.380;13.372;2022-10-17T08:30:22;101402.97;;;19.40;78.83
68525;BME280;55524;51.380;13.372;2022-10-17T08:33:14;101404.97;;;19.21;80.04
68525;BME280;55524;51.380;13.372;2022-10-17T08:43:33;101397.63;;;18.61;83.71
68525;BME280;55524;51.380;13.372;2022-10-17T09:12:26;101367.56;;;20.37;76.83
68525;BME280;55524;51.380;13.372;2022-10-17T09:26:19;101356.16;;;21.56;72.52
68525;BME280;55524;51.380;13.372;2022-10-17T09:29:25;101339.94;;;21.70;70.67
68525;BME280;55524;51.380;13.372;2022-10-17T09:34:51;101337.97;;;21.85;69.42
68525;BME280;55524;51.380;13.372;2022-10-17T09:37:29;101332.50;;;21.87;68.80
68525;BME280;55524;51.380;13.372;2022-10-17T09:40:40;101332.59;;;21.85;69.13
68525;BME280;55524;51.380;13.372;2022-10-17T09:43:34;101335.59;;;21.93;68.09
68525;BME280;55524;51.380;13.372;2022-10-17T09:46:17;101346.03;;;21.85;68.94
68525;BME280;55524;51.380;13.372;2022-10-17T09:52:10;101335.28;;;22.23;67.92
68525;BME280;55524;51.380;13.372;2022-10-17T09:55:03;101343.97;;;22.40;67.17
68525;BME280;55524;51.380;13.372;2022-10-17T09:58:15;101336.06;;;22.62;65.98
68525;BME280;55524;51.380;13.372;2022-10-17T10:01:27;101341.09;;;22.30;66.38
68525;BME280;55524;51.380;13.372;2022-10-17T10:04:34;101343.16;;;22.63;66.17
68525;BME280;55524;51.380;13.372;2022-10-17T10:13:26;101322.72;;;23.55;64.35
68525;BME280;55524;51.380;13.372;2022-10-17T10:16:30;101305.81;;;23.53;61.98
68525;BME280;55524;51.380;13.372;2022-10-17T10:22:51;101305.25;;;23.83;60.71
68525;BME280;55524;51.380;13.372;2022-10-17T10:29:01;101308.47;;;23.77;60.64
68525;BME280;55524;51.380;13.372;2022-10-17T10:40:06;101290.91;;;23.83;59.71
68525;BME280;55524;51.380;13.372;2022-10-17T10:43:29;101299.38;;;24.00;59.92
68525;BME280;55524;51.380;13.372;2022-10-17T10:46:24;101296.53;;;23.79;59.93
68525;BME280;55524;51.380;13.372;2022-10-17T10:49:32;101298.63;;;23.98;60.14
68525;BME280;55524;51.380;13.372;2022-10-17T11:04:39;101294.38;;;23.96;60.81
68525;BME280;55524;51.380;13.372;2022-10-17T11:07:45;101294.09;;;24.44;59.33
68525;BME280;55524;51.380;13.372;2022-10-17T11:10:56;101296.06;;;24.42;59.18
68525;BME280;55524;51.380;13.372;2022-10-17T11:19:38;101285.75;;;24.24;59.43
68525;BME280;55524;51.380;13.372;2022-10-17T11:22:46;101296.06;;;24.19;59.90
68525;BME280;55524;51.380;13.372;2022-10-17T11:28:30;101281.09;;;24.04;60.10
68525;BME280;55524;51.380;13.372;2022-10-17T11:31:46;101279.84;;;24.42;60.33
68525;BME280;55524;51.380;13.372;2022-10-17T11:34:39;101280.56;;;24.55;60.83
68525;BME280;55524;51.380;13.372;2022-10-17T11:37:39;101273.16;;;24.57;59.86
68525;BME280;55524;51.380;13.372;2022-10-17T11:56:04;101256.31;;;24.65;59.28
68525;BME280;55524;51.380;13.372;2022-10-17T12:02:22;101246.91;;;24.48;58.82
68525;BME280;55524;51.380;13.372;2022-10-17T12:24:36;101224.75;;;24.54;57.80
68525;BME280;55524;51.380;13.372;2022-10-17T12:30:37;101200.59;;;24.73;56.59
68525;BME280;55524;51.380;13.372;2022-10-17T12:33:31;101197.69;;;24.86;56.58
68525;BME280;55524;51.380;13.372;2022-10-17T12:47:25;101171.19;;;25.22;54.58
68525;BME280;55524;51.380;13.372;2022-10-17T12:50:09;101166.94;;;25.29;54.10
68525;BME280;55524;51.380;13.372;2022-10-17T12:53:25;101152.81;;;25.56;53.06
68525;BME280;55524;51.380;13.372;2022-10-17T12:56:03;101151.81;;;25.57;53.53
68525;BME280;55524;51.380;13.372;2022-10-17T13:02:29;101130.00;;;25.89;51.24
68525;BME280;55524;51.380;13.372;2022-10-17T13:07:48;101154.94;;;25.52;53.37
68525;BME280;55524;51.380;13.372;2022-10-17T13:10:26;101155.28;;;25.59;53.02
68525;BME280;55524;51.380;13.372;2022-10-17T13:13:16;101160.84;;;25.67;54.06
68525;BME280;55524;51.380;13.372;2022-10-17T13:19:22;101149.53;;;25.52;52.86
68525;BME280;55524;51.380;13.372;2022-10-17T13:22:37;101161.38;;;25.51;54.15
68525;BME280;55524;51.380;13.372;2022-10-17T13:25:23;101164.41;;;25.27;54.68
68525;BME280;55524;51.380;13.372;2022-10-17T13:28:12;101170.41;;;25.31;55.34
68525;BME280;55524;51.380;13.372;2022-10-17T13:33:45;101181.56;;;24.96;56.06
68525;BME280;55524;51.380;13.372;2022-10-17T13:36:21;101183.00;;;25.00;55.36
68525;BME280;55524;51.380;13.372;2022-10-17T13:45:33;101218.59;;;24.63;59.14
68525;BME280;55524;51.380;13.372;2022-10-17T13:48:39;101215.06;;;24.51;58.78
68525;BME280;55524;51.380;13.372;2022-10-17T13:51:09;101227.13;;;24.36;60.20
68525;BME280;55524;51.380;13.372;2022-10-17T13:54:07;101211.16;;;24.44;58.66
68525;BME280;55524;51.380;13.372;2022-10-17T13:57:15;101208.81;;;24.51;58.65
68525;BME280;55524;51.380;13.372;2022-10-17T14:00:22;101192.03;;;24.68;57.59
68525;BME280;55524;51.380;13.372;2022-10-17T14:03:06;101196.25;;;24.50;57.65
68525;BME280;55524;51.380;13.372;2022-10-17T14:05:56;101183.13;;;24.77;57.14
68525;BME280;55524;51.380;13.372;2022-10-17T14:14:39;101162.88;;;25.35;56.13
68525;BME280;55524;51.380;13.372;2022-10-17T14:17:59;101144.72;;;25.56;53.82
68525;BME280;55524;51.380;13.372;2022-10-17T14:20:29;101155.09;;;25.20;55.11
68525;BME280;55524;51.380;13.372;2022-10-17T14:24:10;101145.38;;;25.39;55.12
68525;BME280;55524;51.380;13.372;2022-10-17T14:26:45;101157.00;;;25.09;55.46
68525;BME280;55524;51.380;13.372;2022-10-17T14:30:00;101149.50;;;25.12;55.25
68525;BME280;55524;51.380;13.372;2022-10-17T14:32:49;101159.91;;;24.96;56.71
68525;BME280;55524;51.380;13.372;2022-10-17T14:35:42;101179.22;;;24.70;57.87
68525;BME280;55524;51.380;13.372;2022-10-17T14:38:20;101180.22;;;24.69;57.89
68525;BME280;55524;51.380;13.372;2022-10-17T14:41:14;101177.00;;;24.75;57.29
68525;BME280;55524;51.380;13.372;2022-10-17T14:44:03;101184.63;;;24.70;57.75
68525;BME280;55524;51.380;13.372;2022-10-17T14:52:50;101193.94;;;24.45;57.78
68525;BME280;55524;51.380;13.372;2022-10-17T14:58:34;101207.03;;;24.18;58.39
68525;BME280;55524;51.380;13.372;2022-10-17T15:23:32;101275.84;;;22.50;63.13
68525;BME280;55524;51.380;13.372;2022-10-17T15:32:15;101289.22;;;21.90;65.16
68525;BME280;55524;51.380;13.372;2022-10-17T15:35:33;101300.81;;;21.77;66.31
68525;BME280;55524;51.380;13.372;2022-10-17T15:38:10;101298.28;;;21.63;66.40
68525;BME280;55524;51.380;13.372;2022-10-17T15:40:51;101308.91;;;21.52;66.51
68525;BME280;55524;51.380;13.372;2022-10-17T15:43:50;101317.19;;;21.36;67.55
68525;BME280;55524;51.380;13.372;2022-10-17T15:46:23;101320.88;;;21.21;69.00
68525;BME280;55524;51.380;13.372;2022-10-17T15:49:21;101329.72;;;20.96;70.33
68525;BME280;55524;51.380;13.372;2022-10-17T15:52:14;101332.56;;;20.80;71.17
68525;BME280;55524;51.380;13.372;2022-10-17T15:55:03;101328.91;;;20.54;72.25
68525;BME280;55524;51.380;13.372;2022-10-17T16:01:05;101337.16;;;20.22;73.87
68525;BME280;55524;51.380;13.372;2022-10-17T16:03:54;101339.19;;;19.90;75.59
68525;BME280;55524;51.380;13.372;2022-10-17T16:21:03;101342.59;;;19.03;78.14
68525;BME280;55524;51.380;13.372;2022-10-17T16:23:33;101341.66;;;18.88;78.97
68525;BME280;55524;51.380;13.372;2022-10-17T16:26:29;101347.13;;;18.71;80.00
68525;BME280;55524;51.380;13.372;2022-10-17T16:29:10;101350.63;;;18.56;80.54
68525;BME280;55524;51.380;13.372;2022-10-17T16:34:47;101347.94;;;18.56;79.76
68525;BME280;55524;51.380;13.372;2022-10-17T16:40:44;101355.38;;;18.35;81.63
68525;BME280;55524;51.380;13.372;2022-10-17T16:46:31;101365.88;;;18.22;81.76
68525;BME280;55524;51.380;13.372;2022-10-17T16:49:29;101363.00;;;18.25;81.09
68525;BME280;55524;51.380;13.372;2022-10-17T16:52:25;101367.28;;;18.29;80.52
68525;BME280;55524;51.380;13.372;2022-10-17T17:01:23;101352.50;;;18.22;79.77
68525;BME280;55524;51.380;13.372;2022-10-17T17:07:44;101343.50;;;18.07;79.65
68525;BME280;55524;51.380;13.372;2022-10-17T17:14:06;101352.63;;;18.03;78.83
68525;BME280;55524;51.380;13.372;2022-10-17T17:16:36;101347.38;;;18.02;78.84
68525;BME280;55524;51.380;13.372;2022-10-17T17:22:00;101349.22;;;17.84;79.78
68525;BME280;55524;51.380;13.372;2022-10-17T17:25:10;101356.69;;;17.77;80.20
68525;BME280;55524;51.380;13.372;2022-10-17T17:28:01;101359.66;;;17.71;80.86
68525;BME280;55524;51.380;13.372;2022-10-17T17:31:04;101357.03;;;17.69;80.65
68525;BME280;55524;51.380;13.372;2022-10-17T17:36:38;101355.19;;;17.72;81.37
68525;BME280;55524;51.380;13.372;2022-10-17T17:39:48;101353.34;;;17.72;81.32
68525;BME280;55524;51.380;13.372;2022-10-17T17:42:28;101356.91;;;17.73;81.35
68525;BME280;55524;51.380;13.372;2022-10-17T17:45:10;101353.25;;;17.75;81.54
68525;BME280;55524;51.380;13.372;2022-10-17T17:47:45;101359.56;;;17.73;81.53
68525;BME280;55524;51.380;13.372;2022-10-17T17:50:42;101358.94;;;17.67;82.25
68525;BME280;55524;51.380;13.372;2022-10-17T17:53:48;101358.50;;;17.59;82.35
68525;BME280;55524;51.380;13.372;2022-10-17T17:57:01;101361.56;;;17.52;82.69
68525;BME280;55524;51.380;13.372;2022-10-17T17:59:53;101369.72;;;17.49;83.13
68525;BME280;55524;51.380;13.372;2022-10-17T18:02:52;101366.91;;;17.52;82.74
68525;BME280;55524;51.380;13.372;2022-10-17T18:06:01;101368.50;;;17.38;83.55
68525;BME280;55524;51.380;13.372;2022-10-17T18:11:20;101375.31;;;17.27;84.58
68525;BME280;55524;51.380;13.372;2022-10-17T18:14:19;101379.47;;;17.15;84.87
68525;BME280;55524;51.380;13.372;2022-10-17T18:17:14;101383.84;;;17.16;85.29
68525;BME280;55524;51.380;13.372;2022-10-17T18:20:30;101383.38;;;17.08;85.39
68525;BME280;55524;51.380;13.372;2022-10-17T18:23:09;101385.69;;;16.96;85.88
68525;BME280;55524;51.380;13.372;2022-10-17T18:25:44;101385.84;;;16.93;86.52
68525;BME280;55524;51.380;13.372;2022-10-17T18:28:50;101391.75;;;17.00;86.31
68525;BME280;55524;51.380;13.372;2022-10-17T18:34:53;101398.25;;;16.94;86.69
68525;BME280;55524;51.380;13.372;2022-10-17T18:37:22;101395.44;;;16.98;87.12
68525;BME280;55524;51.380;13.372;2022-10-17T18:40:22;101396.59;;;16.92;87.02
68525;BME280;55524;51.380;13.372;2022-10-17T18:46:33;101401.81;;;16.76;87.79
68525;BME280;55524;51.380;13.372;2022-10-17T18:49:42;101398.38;;;16.72;88.31
68525;BME280;55524;51.380;13.372;2022-10-17T18:52:27;101403.09;;;16.67;88.71
68525;BME280;55524;51.380;13.372;2022-10-17T18:55:40;101400.91;;;16.57;89.10
68525;BME280;55524;51.380;13.372;2022-10-17T18:58:32;101404.81;;;16.50;89.43
68525;BME280;55524;51.380;13.372;2022-10-17T19:01:19;101412.38;;;16.40;90.13
68525;BME280;55524;51.380;13.372;2022-10-17T19:04:06;101410.06;;;16.32;91.02
68525;BME280;55524;51.380;13.372;2022-10-17T19:06:58;101409.19;;;16.32;90.69
68525;BME280;55524;51.380;13.372;2022-10-17T19:13:27;101417.09;;;16.14;92.22
68525;BME280;55524;51.380;13.372;2022-10-17T19:16:09;101427.09;;;16.09;92.53
68525;BME280;55524;51.380;13.372;2022-10-17T19:18:47;101415.78;;;16.04;92.50
68525;BME280;55524;51.380;13.372;2022-10-17T19:21:26;101414.97;;;16.02;92.92
68525;BME280;55524;51.380;13.372;2022-10-17T19:24:00;101423.31;;;15.94;93.30
68525;BME280;55524;51.380;13.372;2022-10-17T19:32:38;101423.59;;;15.68;95.06
68525;BME280;55524;51.380;13.372;2022-10-17T19:39:16;101423.06;;;15.58;95.94
68525;BME280;55524;51.380;13.372;2022-10-17T19:42:42;101428.03;;;15.45;96.92
68525;BME280;55524;51.380;13.372;2022-10-17T19:45:46;101428.28;;;15.39;97.79
68525;BME280;55524;51.380;13.372;2022-10-17T19:48:43;101422.22;;;15.36;97.58
68525;BME280;55524;51.380;13.372;2022-10-17T19:51:35;101423.91;;;15.38;97.59
68525;BME280;55524;51.380;13.372;2022-10-17T19:57:31;101428.72;;;15.50;96.89
68525;BME280;55524;51.380;13.372;2022-10-17T20:00:18;101432.19;;;15.53;97.14
68525;BME280;55524;51.380;13.372;2022-10-17T20:06:03;101427.41;;;15.61;96.45
68525;BME280;55524;51.380;13.372;2022-10-17T20:08:45;101425.53;;;15.63;96.16
68525;BME280;55524;51.380;13.372;2022-10-17T20:11:36;101434.47;;;15.62;96.20
68525;BME280;55524;51.380;13.372;2022-10-17T20:18:11;101444.25;;;15.61;96.20
68525;BME280;55524;51.380;13.372;2022-10-17T20:21:10;101451.25;;;15.64;95.86
68525;BME280;55524;51.380;13.372;2022-10-17T20:24:16;101458.38;;;15.63;96.14
68525;BME280;55524;51.380;13.372;2022-10-17T20:29:50;101454.84;;;15.63;96.17
68525;BME280;55524;51.380;13.372;2022-10-17T20:32:29;101451.50;;;15.58;96.03
68525;BME280;55524;51.380;13.372;2022-10-17T20:35:40;101453.25;;;15.59;96.19
68525;BME280;55524;51.380;13.372;2022-10-17T20:38:12;101458.97;;;15.49;96.75
68525;BME280;55524;51.380;13.372;2022-10-17T20:41:13;101463.63;;;15.44;96.81
68525;BME280;55524;51.380;13.372;2022-10-17T20:43:53;101467.25;;;15.42;97.09
68525;BME280;55524;51.380;13.372;2022-10-17T20:47:03;101475.88;;;15.27;98.35
68525;BME280;55524;51.380;13.372;2022-10-17T20:49:43;101478.72;;;15.22;98.72
68525;BME280;55524;51.380;13.372;2022-10-17T20:52:33;101473.63;;;15.16;99.28
68525;BME280;55524;51.380;13.372;2022-10-17T20:55:30;101476.91;;;15.00;99.33
68525;BME280;55524;51.380;13.372;2022-10-17T20:58:26;101476.91;;;15.00;100.00
68525;BME280;55524;51.380;13.372;2022-10-17T21:01:09;101478.00;;;14.95;100.00
68525;BME280;55524;51.380;13.372;2022-10-17T21:03:42;101473.66;;;14.92;100.00
68525;BME280;55524;51.380;13.372;2022-10-17T21:06:27;101470.97;;;14.94;100.00
68525;BME280;55524;51.380;13.372;2022-10-17T21:09:16;101472.94;;;14.89;100.00
68525;BME280;55524;51.380;13.372;2022-10-17T21:14:50;101470.72;;;14.76;100.00
68525;BME280;55524;51.380;13.372;2022-10-17T21:18:00;101470.78;;;14.75;100.00
68525;BME280;55524;51.380;13.372;2022-10-17T21:24:06;101471.25;;;14.63;100.00
68525;BME280;55524;51.380;13.372;2022-10-17T21:27:00;101473.34;;;14.55;100.00
68525;BME280;55524;51.380;13.372;2022-10-17T21:35:51;101473.69;;;14.69;100.00
68525;BME280;55524;51.380;13.372;2022-10-17T21:38:51;101468.97;;;14.77;100.00
68525;BME280;55524;51.380;13.372;2022-10-17T21:41:59;101478.78;;;14.75;100.00
68525;BME280;55524;51.380;13.372;2022-10-17T21:44:34;101485.97;;;14.73;100.00
68525;BME280;55524;51.380;13.372;2022-10-17T21:47:24;101475.66;;;14.64;100.00
68525;BME280;55524;51.380;13.372;2022-10-17T21:50:17;101485.53;;;14.60;100.00
68525;BME280;55524;51.380;13.372;2022-10-17T21:53:17;101487.72;;;14.49;100.00
68525;BME280;55524;51.380;13.372;2022-10-17T21:56:35;101486.97;;;14.45;100.00
68525;BME280;55524;51.380;13.372;2022-10-17T21:59:13;101495.31;;;14.35;100.00
68525;BME280;55524;51.380;13.372;2022-10-17T22:01:47;101494.72;;;14.26;100.00
68525;BME280;55524;51.380;13.372;2022-10-17T22:04:48;101492.53;;;14.13;100.00
68525;BME280;55524;51.380;13.372;2022-10-17T22:13:32;101499.75;;;14.09;100.00
68525;BME280;55524;51.380;13.372;2022-10-17T22:19:20;101511.69;;;13.97;100.00
68525;BME280;55524;51.380;13.372;2022-10-17T22:24:42;101505.50;;;13.97;100.00
68525;BME280;55524;51.380;13.372;2022-10-17T22:27:49;101507.09;;;14.02;100.00
68525;BME280;55524;51.380;13.372;2022-10-17T22:30:27;101499.56;;;14.15;100.00
68525;BME280;55524;51.380;13.372;2022-10-17T22:33:08;101504.59;;;14.23;100.00
68525;BME280;55524;51.380;13.372;2022-10-17T22:35:34;101500.22;;;14.22;100.00
68525;BME280;55524;51.380;13.372;2022-10-17T22:38:29;101500.31;;;14.19;100.00
68525;BME280;55524;51.380;13.372;2022-10-17T22:41:25;101502.00;;;14.21;100.00
68525;BME280;55524;51.380;13.372;2022-10-17T22:44:14;101500.31;;;14.19;100.00
68525;BME280;55524;51.380;13.372;2022-10-17T22:50:17;101499.31;;;13.96;100.00
68525;BME280;55524;51.380;13.372;2022-10-17T22:56:30;101502.31;;;13.87;100.00
68525;BME280;55524;51.380;13.372;2022-10-17T22:59:46;101505.00;;;13.86;100.00
68525;BME280;55524;51.380;13.372;2022-10-17T23:02:35;101497.00;;;13.86;100.00
68525;BME280;55524;51.380;13.372;2022-10-17T23:08:48;101502.81;;;13.72;100.00
68525;BME280;55524;51.380;13.372;2022-10-17T23:11:54;101512.16;;;13.57;100.00
68525;BME280;55524;51.380;13.372;2022-10-17T23:14:43;101503.72;;;13.44;100.00
68525;BME280;55524;51.380;13.372;2022-10-17T23:21:17;101503.91;;;13.09;100.00
68525;BME280;55524;51.380;13.372;2022-10-17T23:24:24;101506.00;;;12.99;100.00
68525;BME280;55524;51.380;13.372;2022-10-17T23:27:14;101501.72;;;12.93;100.00
68525;BME280;55524;51.380;13.372;2022-10-17T23:30:12;101506.34;;;12.87;100.00
68525;BME280;55524;51.380;13.372;2022-10-17T23:32:44;101504.66;;;12.84;100.00
68525;BME280;55524;51.380;13.372;2022-10-17T23:35:23;101503.09;;;12.77;100.00
68525;BME280;55524;51.380;13.372;2022-10-17T23:38:15;101500.75;;;12.66;100.00
68525;BME280;55524;51.380;13.372;2022-10-17T23:41:20;101502.75;;;12.58;100.00
68525;BME280;55524;51.380;13.372;2022-10-17T23:44:20;101502.09;;;12.50;100.00
68525;BME280;55524;51.380;13.372;2022-10-17T23:46:53;101512.75;;;12.48;100.00
68525;BME280;55524;51.380;13.372;2022-10-17T23:52:27;101508.53;;;12.41;100.00
68525;BME280;55524;51.380;13.372;2022-10-17T23:55:23;101513.69;;;12.47;100.00
68525;BME280;55524;51.380;13.372;2022-10-17T23:58:12;101515.63;;;12.41;100.00
